CDT,Max TemperatureF,Mean TemperatureF,Min TemperatureF,Max Dew PointF,MeanDew PointF,Min DewpointF,Max Humidity, Mean Humidity, Min Humidity, Max Sea Level PressureIn, Mean Sea Level PressureIn, Min Sea Level PressureIn, Max VisibilityMiles, Mean VisibilityMiles, Min VisibilityMiles, Max Wind SpeedMPH, Mean Wind SpeedMPH, Max Gust SpeedMPH,PrecipitationIn, CloudCover, Events, WindDirDegrees
2011-3-1,73,61,48,54,46,42,93,67,41,30.30,30.21,30.16,10,10,10,23,11,31,0.00,0,,70
2011-3-2,72,58,43,58,52,44,100,75,49,30.19,30.12,30.05,10,7,0,14,7,16,0.00,2,Fog,60
2011-3-3,76,61,45,59,55,46,100,73,46,30.07,30.01,29.93,10,10,7,17,7,23,0.00,2,Fog,126
2011-3-4,74,65,55,67,62,55,100,82,64,29.93,29.87,29.81,10,10,9,18,10,24,0.00,7,,134
2011-3-5,74,64,54,68,53,33,97,63,29,30.26,30.06,29.86,10,8,2,40,15,48,0.03,5,Rain-Thunderstorm,8
2011-3-6,67,53,39,48,38,30,83,57,31,30.27,30.16,30.01,10,10,10,22,10,29,0.00,0,,70
2011-3-7,75,62,48,65,57,46,100,79,57,29.98,29.84,29.75,10,10,9,25,14,33,0.00,3,,144
2011-3-8,80,74,68,70,67,64,100,86,71,29.79,29.72,29.67,10,8,3,24,14,32,T,7,,154
2011-3-9,82,73,63,68,56,35,100,62,23,30.33,29.99,29.80,10,7,2,29,15,32,T,3,,3
2011-3-10,78,60,42,43,34,19,67,39,11,30.46,30.36,30.30,10,10,10,17,7,26,0.00,0,,31
2011-3-11,74,57,40,56,48,36,93,67,40,30.31,30.20,30.11,10,10,10,23,10,29,0.00,0,Fog,158
2011-3-12,77,68,58,60,58,56,93,74,54,30.09,30.04,29.97,10,10,9,31,16,41,0.00,2,,158
2011-3-13,75,69,63,67,64,61,93,81,68,30.06,30.02,29.97,10,10,5,28,15,36,T,6,Rain,151
2011-3-14,79,71,62,67,65,61,100,84,67,30.16,30.07,30.01,10,8,4,23,10,30,0.19,6,Rain-Thunderstorm,122
2011-3-15,70,64,58,65,59,52,93,83,73,30.20,30.14,30.10,10,10,9,20,12,23,0.00,6,,78
2011-3-16,78,71,63,67,65,62,100,81,62,30.19,30.13,30.08,10,9,6,23,14,30,0.00,6,,135
2011-3-17,81,75,68,67,65,64,90,74,58,30.17,30.11,30.06,10,10,8,25,18,35,0.00,6,,159
2011-3-18,83,76,69,68,67,65,97,78,58,30.18,30.12,30.07,10,10,5,24,15,33,0.00,6,,154
2011-3-19,80,74,68,66,65,64,93,78,62,30.16,30.11,30.06,10,10,10,24,14,32,0.00,6,,138
2011-3-20,80,75,69,67,66,63,90,74,58,30.15,30.10,30.05,10,10,6,24,16,35,0.00,6,,141
2011-3-21,80,75,69,67,65,59,90,71,52,30.18,30.10,30.03,10,10,7,25,17,33,0.00,6,,147
2011-3-22,81,75,68,67,65,60,93,74,54,30.04,29.93,29.82,10,10,7,30,20,40,0.00,5,,158
2011-3-23,82,75,68,68,66,63,97,76,54,29.91,29.85,29.80,10,9,4,23,12,31,0.00,4,,155
2011-3-24,80,74,68,68,66,64,97,81,64,29.99,29.92,29.87,10,9,5,20,10,25,0.00,6,,124
2011-3-25,83,75,67,69,67,66,97,78,58,29.90,29.80,29.70,10,9,5,21,12,29,0.00,5,,147
2011-3-26,84,78,71,70,69,68,93,79,65,29.73,29.68,29.62,10,9,5,20,12,26,0.00,4,,151
2011-3-27,82,77,71,70,70,69,93,81,69,29.81,29.71,29.65,10,8,5,17,9,21,0.00,6,,122
2011-3-28,73,70,66,70,65,58,100,87,73,29.91,29.85,29.79,10,7,2,23,15,29,0.01,8,,68
2011-3-29,80,75,70,72,70,67,100,85,69,29.88,29.82,29.75,10,7,2,21,9,45,T,8,,102
2011-3-30,77,67,56,71,55,51,93,70,46,30.01,29.91,29.82,10,9,2,29,12,36,0.06,5,Rain,22
2011-3-31,78,66,54,62,59,52,93,75,56,29.90,29.83,29.76,10,10,6,17,7,23,0.00,3,,102